sensor_id;sensor_type;location;lat;lon;timestamp;pressure;altitude;pressure_sealevel;temperature;humidity
80500;BME280;69823;54.120;-4.710;2023-05-10T00:00:42;99334.08;;;22.55;29.39
80500;BME280;69823;54.120;-4.710;2023-05-10T00:03:07;99335.06;;;22.82;29.35
80500;BME280;69823;54.120;-4.710;2023-05-10T00:05:33;99334.08;;;22.52;29.43
80500;BME280;69823;54.120;-4.710;2023-05-10T00:07:59;99334.31;;;22.72;29.48
80500;BME280;69823;54.120;-4.710;2023-05-10T00:10:25;99334.54;;;22.95;29.25
80500;BME280;69823;54.120;-4.710;2023-05-10T00:12:51;99336.26;;;22.44;29.28
80500;BME280;69823;54.120;-4.710;2023-05-10T00:15:17;99335.23;;;22.72;29.48
80500;BME280;69823;54.120;-4.710;2023-05-10T00:17:42;99336.39;;;22.80;29.40
80500;BME280;69823;54.120;-4.710;2023-05-10T00:20:10;99336.09;;;22.85;29.33
80500;BME280;69823;54.120;-4.710;2023-05-10T00:22:34;99334.80;;;22.52;29.43
80500;BME280;69823;54.120;-4.710;2023-05-10T00:25:00;99336.10;;;22.40;29.54
80500;BME280;69823;54.120;-4.710;2023-05-10T00:27:26;99333.75;;;22.47;29.47
80500;BME280;69823;54.120;-4.710;2023-05-10T00:29:51;99333.83;;;22.20;29.50
80500;BME280;69823;54.120;-4.710;2023-05-10T00:32:17;99332.66;;;22.80;29.36
80500;BME280;69823;54.120;-4.710;2023-05-10T00:34:43;99330.89;;;22.40;29.52
80500;BME280;69823;54.120;-4.710;2023-05-10T00:37:09;99324.92;;;22.66;29.50
80500;BME280;69823;54.120;-4.710;2023-05-10T00:39:35;99325.59;;;22.76;29.40
80500;BME280;69823;54.120;-4.710;2023-05-10T00:42:00;99326.42;;;22.45;29.48
80500;BME280;69823;54.120;-4.710;2023-05-10T00:44:26;99326.38;;;22.68;29.48
80500;BME280;69823;54.120;-4.710;2023-05-10T00:46:52;99327.12;;;22.44;29.49
80500;BME280;69823;54.120;-4.710;2023-05-10T00:49:18;99325.45;;;22.53;29.66
80500;BME280;69823;54.120;-4.710;2023-05-10T00:51:44;99324.49;;;22.54;29.62
80500;BME280;69823;54.120;-4.710;2023-05-10T00:54:11;99325.81;;;22.66;29.51
80500;BME280;69823;54.120;-4.710;2023-05-10T00:56:36;99321.43;;;22.44;29.48
80500;BME280;69823;54.120;-4.710;2023-05-10T00:59:01;99320.10;;;22.38;29.53
80500;BME280;69823;54.120;-4.710;2023-05-10T01:01:28;99319.65;;;22.38;29.55
80500;BME280;69823;54.120;-4.710;2023-05-10T01:03:53;99315.84;;;22.81;29.34
80500;BME280;69823;54.120;-4.710;2023-05-10T01:06:18;99315.82;;;22.62;29.52
80500;BME280;69823;54.120;-4.710;2023-05-10T01:08:44;99313.59;;;22.46;29.44
80500;BME280;69823;54.120;-4.710;2023-05-10T01:11:10;99312.04;;;22.61;29.52
80500;BME280;69823;54.120;-4.710;2023-05-10T01:13:37;99309.69;;;22.65;29.47
80500;BME280;69823;54.120;-4.710;2023-05-10T01:16:02;99309.50;;;22.50;29.63
80500;BME280;69823;54.120;-4.710;2023-05-10T01:18:28;99308.61;;;22.65;29.46
80500;BME280;69823;54.120;-4.710;2023-05-10T01:21:00;99302.75;;;22.37;29.50
80500;BME280;69823;54.120;-4.710;2023-05-10T01:23:38;99300.32;;;22.59;29.53
80500;BME280;69823;54.120;-4.710;2023-05-10T01:28:28;99297.98;;;22.55;29.58
80500;BME280;69823;54.120;-4.710;2023-05-10T01:33:08;99295.13;;;22.62;29.50
80500;BME280;69823;54.120;-4.710;2023-05-10T01:35:34;99292.75;;;22.70;29.41
80500;BME280;69823;54.120;-4.710;2023-05-10T01:37:59;99292.70;;;22.65;29.44
80500;BME280;69823;54.120;-4.710;2023-05-10T01:40:25;99294.92;;;22.50;29.58
80500;BME280;69823;54.120;-4.710;2023-05-10T01:42:49;99291.49;;;22.42;29.63
80500;BME280;69823;54.120;-4.710;2023-05-10T01:45:16;99292.56;;;22.40;29.60
80500;BME280;69823;54.120;-4.710;2023-05-10T01:47:40;99293.28;;;22.53;29.45
80500;BME280;69823;54.120;-4.710;2023-05-10T01:50:06;99294.70;;;22.67;29.29
80500;BME280;69823;54.120;-4.710;2023-05-10T01:52:32;99293.80;;;22.17;29.48
80500;BME280;69823;54.120;-4.710;2023-05-10T01:55:00;99295.43;;;22.12;29.56
80500;BME280;69823;54.120;-4.710;2023-05-10T01:57:22;99296.67;;;22.26;29.68
80500;BME280;69823;54.120;-4.710;2023-05-10T01:59:49;99297.94;;;22.45;29.45
80500;BME280;69823;54.120;-4.710;2023-05-10T02:02:13;99296.05;;;22.32;29.33
80500;BME280;69823;54.120;-4.710;2023-05-10T02:04:39;99299.57;;;22.25;29.61
80500;BME280;69823;54.120;-4.710;2023-05-10T02:07:04;99298.42;;;22.37;29.50
80500;BME280;69823;54.120;-4.710;2023-05-10T02:09:30;99299.71;;;22.31;29.57
80500;BME280;69823;54.120;-4.710;2023-05-10T02:11:57;99301.07;;;22.37;29.52
80500;BME280;69823;54.120;-4.710;2023-05-10T02:14:21;99303.09;;;22.15;29.73
80500;BME280;69823;54.120;-4.710;2023-05-10T02:16:48;99300.50;;;22.29;29.59
80500;BME280;69823;54.120;-4.710;2023-05-10T02:19:13;99300.76;;;22.31;29.56
80500;BME280;69823;54.120;-4.710;2023-05-10T02:21:39;99301.18;;;22.16;29.45
80500;BME280;69823;54.120;-4.710;2023-05-10T02:24:05;99301.07;;;22.25;29.59
80500;BME280;69823;54.120;-4.710;2023-05-10T02:26:31;99297.04;;;22.64;29.44
80500;BME280;69823;54.120;-4.710;2023-05-10T02:28:57;99293.59;;;22.23;29.62
80500;BME280;69823;54.120;-4.710;2023-05-10T02:31:22;99292.30;;;22.39;29.48
80500;BME280;69823;54.120;-4.710;2023-05-10T02:33:48;99289.62;;;22.41;29.47
80500;BME280;69823;54.120;-4.710;2023-05-10T02:36:13;99288.29;;;22.40;29.46
80500;BME280;69823;54.120;-4.710;2023-05-10T02:38:40;99287.35;;;22.32;29.54
80500;BME280;69823;54.120;-4.710;2023-05-10T02:41:05;99288.23;;;21.96;29.65
80500;BME280;69823;54.120;-4.710;2023-05-10T02:43:32;99289.54;;;22.25;29.60
80500;BME280;69823;54.120;-4.710;2023-05-10T02:45:57;99286.30;;;22.11;29.73
80500;BME280;69823;54.120;-4.710;2023-05-10T02:48:22;99287.64;;;22.20;29.63
80500;BME280;69823;54.120;-4.710;2023-05-10T02:50:50;99290.17;;;22.07;29.75
80500;BME280;69823;54.120;-4.710;2023-05-10T02:53:15;99287.30;;;21.84;29.76
80500;BME280;69823;54.120;-4.710;2023-05-10T02:55:40;99287.26;;;22.10;29.72
80500;BME280;69823;54.120;-4.710;2023-05-10T02:58:05;99285.37;;;22.02;29.78
80500;BME280;69823;54.120;-4.710;2023-05-10T03:00:31;99282.31;;;22.07;29.76
80500;BME280;69823;54.120;-4.710;2023-05-10T03:02:57;99282.10;;;22.07;29.77
80500;BME280;69823;54.120;-4.710;2023-05-10T03:05:23;99282.36;;;22.21;29.58
80500;BME280;69823;54.120;-4.710;2023-05-10T03:07:49;99281.69;;;21.71;29.83
80500;BME280;69823;54.120;-4.710;2023-05-10T03:10:14;99282.49;;;22.06;29.74
80500;BME280;69823;54.120;-4.710;2023-05-10T03:12:49;99283.47;;;22.04;29.78
80500;BME280;69823;54.120;-4.710;2023-05-10T03:15:13;99283.67;;;22.18;29.63
80500;BME280;69823;54.120;-4.710;2023-05-10T03:17:45;99286.23;;;22.27;29.78
80500;BME280;69823;54.120;-4.710;2023-05-10T03:20:02;99283.79;;;22.12;29.59
80500;BME280;69823;54.120;-4.710;2023-05-10T03:22:26;99281.25;;;21.60;30.11
80500;BME280;69823;54.120;-4.710;2023-05-10T03:24:49;99277.94;;;21.42;30.36
80500;BME280;69823;54.120;-4.710;2023-05-10T03:27:15;99277.09;;;21.33;30.76
80500;BME280;69823;54.120;-4.710;2023-05-10T03:29:42;99276.87;;;21.12;31.02
80500;BME280;69823;54.120;-4.710;2023-05-10T03:32:06;99274.29;;;21.31;31.05
80500;BME280;69823;54.120;-4.710;2023-05-10T03:34:32;99274.43;;;20.55;31.37
80500;BME280;69823;54.120;-4.710;2023-05-10T03:36:58;99273.86;;;20.73;31.47
80500;BME280;69823;54.120;-4.710;2023-05-10T03:39:24;99271.72;;;20.76;31.41
80500;BME280;69823;54.120;-4.710;2023-05-10T03:41:50;99271.42;;;20.95;31.43
80500;BME280;69823;54.120;-4.710;2023-05-10T03:44:16;99273.01;;;20.50;31.64
80500;BME280;69823;54.120;-4.710;2023-05-10T03:46:41;99268.84;;;20.42;31.79
80500;BME280;69823;54.120;-4.710;2023-05-10T03:49:07;99268.34;;;20.55;31.57
80500;BME280;69823;54.120;-4.710;2023-05-10T03:51:33;99273.52;;;20.75;31.66
80500;BME280;69823;54.120;-4.710;2023-05-10T03:53:59;99270.54;;;20.33;31.83
80500;BME280;69823;54.120;-4.710;2023-05-10T03:56:24;99268.11;;;20.64;31.78
80500;BME280;69823;54.120;-4.710;2023-05-10T03:58:50;99269.05;;;20.48;31.63
80500;BME280;69823;54.120;-4.710;2023-05-10T04:01:16;99269.15;;;20.44;31.66
80500;BME280;69823;54.120;-4.710;2023-05-10T04:03:42;99269.55;;;20.26;31.56
80500;BME280;69823;54.120;-4.710;2023-05-10T04:06:08;99268.47;;;20.41;31.80
80500;BME280;69823;54.120;-4.710;2023-05-10T04:08:33;99265.80;;;20.45;31.81
80500;BME280;69823;54.120;-4.710;2023-05-10T04:11:05;99265.35;;;19.98;31.81
80500;BME280;69823;54.120;-4.710;2023-05-10T04:13:25;99267.01;;;20.45;31.76
80500;BME280;69823;54.120;-4.710;2023-05-10T04:15:51;99264.93;;;20.25;31.98
80500;BME280;69823;54.120;-4.710;2023-05-10T04:18:17;99266.28;;;19.96;32.00
80500;BME280;69823;54.120;-4.710;2023-05-10T04:20:42;99271.50;;;20.36;32.14
80500;BME280;69823;54.120;-4.710;2023-05-10T04:23:08;99270.51;;;19.90;32.38
80500;BME280;69823;54.120;-4.710;2023-05-10T04:25:34;99270.21;;;19.72;32.57
80500;BME280;69823;54.120;-4.710;2023-05-10T04:28:00;99272.88;;;20.11;32.09
80500;BME280;69823;54.120;-4.710;2023-05-10T04:30:26;99271.36;;;20.08;32.14
80500;BME280;69823;54.120;-4.710;2023-05-10T04:32:51;99274.24;;;20.26;31.90
80500;BME280;69823;54.120;-4.710;2023-05-10T04:35:17;99270.09;;;20.33;32.10
80500;BME280;69823;54.120;-4.710;2023-05-10T04:37:43;99269.93;;;20.29;31.84
80500;BME280;69823;54.120;-4.710;2023-05-10T04:40:10;99268.73;;;20.19;32.16
80500;BME280;69823;54.120;-4.710;2023-05-10T04:42:35;99267.13;;;20.01;31.79
80500;BME280;69823;54.120;-4.710;2023-05-10T04:45:01;99263.32;;;19.61;32.32
80500;BME280;69823;54.120;-4.710;2023-05-10T04:47:26;99265.94;;;20.38;31.98
80500;BME280;69823;54.120;-4.710;2023-05-10T04:49:52;99267.81;;;19.76;32.67
80500;BME280;69823;54.120;-4.710;2023-05-10T04:52:18;99267.63;;;19.69;32.44
80500;BME280;69823;54.120;-4.710;2023-05-10T04:54:44;99266.19;;;19.62;32.48
80500;BME280;69823;54.120;-4.710;2023-05-10T04:57:09;99264.61;;;19.53;32.57
80500;BME280;69823;54.120;-4.710;2023-05-10T04:59:35;99270.37;;;19.50;32.66
80500;BME280;69823;54.120;-4.710;2023-05-10T05:02:01;99269.27;;;19.80;32.33
80500;BME280;69823;54.120;-4.710;2023-05-10T05:04:27;99274.80;;;20.21;32.08
80500;BME280;69823;54.120;-4.710;2023-05-10T05:06:53;99269.01;;;19.77;32.28
80500;BME280;69823;54.120;-4.710;2023-05-10T05:09:19;99272.10;;;19.72;32.37
80500;BME280;69823;54.120;-4.710;2023-05-10T05:11:44;99272.61;;;19.62;32.46
80500;BME280;69823;54.120;-4.710;2023-05-10T05:14:10;99273.65;;;19.84;32.02
80500;BME280;69823;54.120;-4.710;2023-05-10T05:16:36;99273.33;;;19.80;32.31
80500;BME280;69823;54.120;-4.710;2023-05-10T05:19:02;99270.82;;;19.49;32.47
80500;BME280;69823;54.120;-4.710;2023-05-10T05:21:28;99271.34;;;19.93;32.57
80500;BME280;69823;54.120;-4.710;2023-05-10T05:23:54;99272.90;;;19.31;33.01
80500;BME280;69823;54.120;-4.710;2023-05-10T05:26:19;99276.72;;;19.20;32.60
80500;BME280;69823;54.120;-4.710;2023-05-10T05:28:45;99272.69;;;19.49;32.25
80500;BME280;69823;54.120;-4.710;2023-05-10T05:31:11;99273.24;;;19.71;32.31
80500;BME280;69823;54.120;-4.710;2023-05-10T05:33:37;99277.21;;;19.75;32.24
80500;BME280;69823;54.120;-4.710;2023-05-10T05:36:04;99280.98;;;19.86;32.09
80500;BME280;69823;54.120;-4.710;2023-05-10T05:38:28;99280.82;;;19.92;32.30
80500;BME280;69823;54.120;-4.710;2023-05-10T05:40:54;99280.33;;;19.72;32.21
80500;BME280;69823;54.120;-4.710;2023-05-10T05:43:20;99279.08;;;19.90;31.95
80500;BME280;69823;54.120;-4.710;2023-05-10T05:45:46;99279.13;;;19.81;32.11
80500;BME280;69823;54.120;-4.710;2023-05-10T05:48:12;99273.19;;;19.78;32.36
80500;BME280;69823;54.120;-4.710;2023-05-10T05:50:38;99276.54;;;19.52;32.65
80500;BME280;69823;54.120;-4.710;2023-05-10T05:53:03;99278.30;;;19.76;32.20
80500;BME280;69823;54.120;-4.710;2023-05-10T05:55:29;99280.93;;;19.67;32.11
80500;BME280;69823;54.120;-4.710;2023-05-10T05:57:55;99282.18;;;19.45;32.70
80500;BME280;69823;54.120;-4.710;2023-05-10T06:00:21;99282.54;;;19.70;32.38
80500;BME280;69823;54.120;-4.710;2023-05-10T06:02:47;99285.76;;;19.57;32.30
80500;BME280;69823;54.120;-4.710;2023-05-10T06:05:13;99285.33;;;19.58;32.32
80500;BME280;69823;54.120;-4.710;2023-05-10T06:07:38;99285.90;;;20.05;32.08
80500;BME280;69823;54.120;-4.710;2023-05-10T06:10:06;99290.88;;;19.80;32.09
80500;BME280;69823;54.120;-4.710;2023-05-10T06:12:30;99290.19;;;19.87;31.98
80500;BME280;69823;54.120;-4.710;2023-05-10T06:14:56;99290.11;;;19.99;31.89
80500;BME280;69823;54.120;-4.710;2023-05-10T06:17:22;99295.93;;;20.63;31.50
80500;BME280;69823;54.120;-4.710;2023-05-10T06:19:48;99294.86;;;20.48;31.41
80500;BME280;69823;54.120;-4.710;2023-05-10T06:22:13;99297.00;;;21.23;30.84
80500;BME280;69823;54.120;-4.710;2023-05-10T06:24:39;99295.85;;;21.41;30.35
80500;BME280;69823;54.120;-4.710;2023-05-10T06:27:05;99300.09;;;21.45;30.29
80500;BME280;69823;54.120;-4.710;2023-05-10T06:29:31;99298.94;;;21.56;30.16
80500;BME280;69823;54.120;-4.710;2023-05-10T06:31:57;99305.63;;;21.71;29.97
80500;BME280;69823;54.120;-4.710;2023-05-10T06:34:23;99306.25;;;21.36;29.81
80500;BME280;69823;54.120;-4.710;2023-05-10T06:36:48;99306.63;;;21.85;29.80
80500;BME280;69823;54.120;-4.710;2023-05-10T06:39:14;99309.30;;;21.55;29.88
80500;BME280;69823;54.120;-4.710;2023-05-10T06:41:40;99307.64;;;21.80;29.87
80500;BME280;69823;54.120;-4.710;2023-05-10T06:44:06;99310.63;;;21.48;29.97
80500;BME280;69823;54.120;-4.710;2023-05-10T06:46:32;99309.30;;;21.79;29.86
80500;BME280;69823;54.120;-4.710;2023-05-10T06:48:58;99313.12;;;21.71;29.69
80500;BME280;69823;54.120;-4.710;2023-05-10T06:51:23;99313.90;;;22.00;29.61
80500;BME280;69823;54.120;-4.710;2023-05-10T06:53:49;99313.76;;;21.57;29.55
80500;BME280;69823;54.120;-4.710;2023-05-10T06:56:15;99313.41;;;21.92;29.68
80500;BME280;69823;54.120;-4.710;2023-05-10T06:58:41;99315.47;;;21.67;29.71
80500;BME280;69823;54.120;-4.710;2023-05-10T07:01:07;99316.01;;;21.84;29.54
80500;BME280;69823;54.120;-4.710;2023-05-10T07:03:32;99316.02;;;21.61;29.51
80500;BME280;69823;54.120;-4.710;2023-05-10T07:06:00;99313.35;;;21.84;29.51
80500;BME280;69823;54.120;-4.710;2023-05-10T07:08:24;99313.24;;;21.92;29.66
80500;BME280;69823;54.120;-4.710;2023-05-10T07:10:50;99317.63;;;21.54;29.55
80500;BME280;69823;54.120;-4.710;2023-05-10T07:13:16;99316.00;;;21.76;29.55
80500;BME280;69823;54.120;-4.710;2023-05-10T07:15:42;99320.79;;;21.91;29.65
80500;BME280;69823;54.120;-4.710;2023-05-10T07:18:07;99324.52;;;21.88;29.42
80500;BME280;69823;54.120;-4.710;2023-05-10T07:20:33;99320.59;;;22.31;29.19
80500;BME280;69823;54.120;-4.710;2023-05-10T07:22:59;99326.23;;;22.09;29.39
80500;BME280;69823;54.120;-4.710;2023-05-10T07:25:25;99325.03;;;21.58;29.46
80500;BME280;69823;54.120;-4.710;2023-05-10T07:27:50;99324.29;;;21.61;29.45
80500;BME280;69823;54.120;-4.710;2023-05-10T07:30:16;99325.85;;;21.85;29.48
80500;BME280;69823;54.120;-4.710;2023-05-10T07:32:42;99324.16;;;21.55;29.52
80500;BME280;69823;54.120;-4.710;2023-05-10T07:35:08;99320.42;;;22.01;29.27
80500;BME280;69823;54.120;-4.710;2023-05-10T07:37:34;99326.37;;;21.95;29.30
80500;BME280;69823;54.120;-4.710;2023-05-10T07:40:00;99323.71;;;21.73;29.29
80500;BME280;69823;54.120;-4.710;2023-05-10T07:42:25;99322.24;;;21.88;29.37
80500;BME280;69823;54.120;-4.710;2023-05-10T07:44:51;99325.67;;;22.16;29.31
80500;BME280;69823;54.120;-4.710;2023-05-10T07:47:17;99324.56;;;21.87;29.34
80500;BME280;69823;54.120;-4.710;2023-05-10T07:49:43;99321.43;;;21.70;29.29
80500;BME280;69823;54.120;-4.710;2023-05-10T07:52:09;99321.09;;;21.77;29.23
80500;BME280;69823;54.120;-4.710;2023-05-10T07:54:34;99318.62;;;22.09;29.14
80500;BME280;69823;54.120;-4.710;2023-05-10T07:57:00;99324.80;;;21.86;29.37
80500;BME280;69823;54.120;-4.710;2023-05-10T07:59:26;99323.58;;;21.82;29.41
80500;BME280;69823;54.120;-4.710;2023-05-10T08:01:52;99323.20;;;21.82;29.18
80500;BME280;69823;54.120;-4.710;2023-05-10T08:04:18;99322.16;;;21.58;29.41
80500;BME280;69823;54.120;-4.710;2023-05-10T08:06:44;99321.89;;;22.21;29.26
80500;BME280;69823;54.120;-4.710;2023-05-10T08:09:09;99322.61;;;21.85;29.40
80500;BME280;69823;54.120;-4.710;2023-05-10T08:11:35;99326.66;;;21.79;29.45
80500;BME280;69823;54.120;-4.710;2023-05-10T08:14:01;99323.68;;;21.97;29.26
80500;BME280;69823;54.120;-4.710;2023-05-10T08:16:27;99325.19;;;21.94;29.28
80500;BME280;69823;54.120;-4.710;2023-05-10T08:18:53;99326.42;;;22.04;29.17
80500;BME280;69823;54.120;-4.710;2023-05-10T08:21:19;99322.09;;;22.42;29.00
80500;BME280;69823;54.120;-4.710;2023-05-10T08:23:44;99320.17;;;22.22;29.20
80500;BME280;69823;54.120;-4.710;2023-05-10T08:26:10;99319.67;;;21.80;29.14
80500;BME280;69823;54.120;-4.710;2023-05-10T08:28:36;99322.67;;;21.80;29.16
80500;BME280;69823;54.120;-4.710;2023-05-10T08:31:02;99320.08;;;21.85;29.08
80500;BME280;69823;54.120;-4.710;2023-05-10T08:33:28;99328.35;;;21.56;29.39
80500;BME280;69823;54.120;-4.710;2023-05-10T08:35:53;99325.51;;;22.28;29.15
80500;BME280;69823;54.120;-4.710;2023-05-10T08:38:19;99328.15;;;21.69;29.25
80500;BME280;69823;54.120;-4.710;2023-05-10T08:40:46;99328.33;;;21.77;29.44
80500;BME280;69823;54.120;-4.710;2023-05-10T08:43:12;99329.08;;;21.93;29.27
80500;BME280;69823;54.120;-4.710;2023-05-10T08:45:38;99335.39;;;21.91;29.28
80500;BME280;69823;54.120;-4.710;2023-05-10T08:48:05;99333.57;;;22.16;29.28
80500;BME280;69823;54.120;-4.710;2023-05-10T08:50:29;99333.99;;;22.05;29.15
80500;BME280;69823;54.120;-4.710;2023-05-10T08:52:55;99336.74;;;22.11;29.34
80500;BME280;69823;54.120;-4.710;2023-05-10T08:55:20;99340.52;;;21.61;29.36
80500;BME280;69823;54.120;-4.710;2023-05-10T08:57:46;99334.02;;;21.93;29.27
80500;BME280;69823;54.120;-4.710;2023-05-10T09:00:13;99336.39;;;21.72;29.23
80500;BME280;69823;54.120;-4.710;2023-05-10T09:02:37;99336.74;;;21.60;29.34
80500;BME280;69823;54.120;-4.710;2023-05-10T09:05:04;99335.21;;;21.87;29.31
80500;BME280;69823;54.120;-4.710;2023-05-10T09:07:29;99339.03;;;21.76;29.70
80500;BME280;69823;54.120;-4.710;2023-05-10T09:09:55;99340.37;;;21.58;30.09
80500;BME280;69823;54.120;-4.710;2023-05-10T09:12:21;99347.12;;;21.39;30.54
80500;BME280;69823;54.120;-4.710;2023-05-10T09:14:47;99347.05;;;21.18;30.62
80500;BME280;69823;54.120;-4.710;2023-05-10T09:17:13;99339.95;;;21.58;30.62
80500;BME280;69823;54.120;-4.710;2023-05-10T09:19:38;99340.81;;;21.69;30.68
80500;BME280;69823;54.120;-4.710;2023-05-10T09:22:04;99343.32;;;21.80;30.31
80500;BME280;69823;54.120;-4.710;2023-05-10T09:24:30;99342.30;;;22.03;30.17
80500;BME280;69823;54.120;-4.710;2023-05-10T09:26:56;99342.71;;;22.35;29.93
80500;BME280;69823;54.120;-4.710;2023-05-10T09:29:22;99346.35;;;22.48;30.05
80500;BME280;69823;54.120;-4.710;2023-05-10T09:31:48;99346.54;;;21.82;30.60
80500;BME280;69823;54.120;-4.710;2023-05-10T09:34:17;99344.74;;;21.92;30.45
80500;BME280;69823;54.120;-4.710;2023-05-10T09:36:50;99350.06;;;21.93;30.49
80500;BME280;69823;54.120;-4.710;2023-05-10T09:39:04;99350.09;;;21.80;30.62
80500;BME280;69823;54.120;-4.710;2023-05-10T09:41:30;99353.93;;;21.89;30.51
80500;BME280;69823;54.120;-4.710;2023-05-10T09:43:56;99355.63;;;21.98;30.44
80500;BME280;69823;54.120;-4.710;2023-05-10T09:46:22;99355.15;;;22.17;30.26
80500;BME280;69823;54.120;-4.710;2023-05-10T09:48:48;99356.80;;;22.23;30.25
80500;BME280;69823;54.120;-4.710;2023-05-10T09:51:18;99354.03;;;22.02;30.16
80500;BME280;69823;54.120;-4.710;2023-05-10T09:53:39;99358.09;;;22.19;30.23
80500;BME280;69823;54.120;-4.710;2023-05-10T09:56:05;99357.55;;;21.99;30.46
80500;BME280;69823;54.120;-4.710;2023-05-10T09:58:31;99359.76;;;22.10;30.45
80500;BME280;69823;54.120;-4.710;2023-05-10T10:00:57;99359.49;;;22.28;30.36
80500;BME280;69823;54.120;-4.710;2023-05-10T10:03:22;99362.50;;;22.47;30.31
80500;BME280;69823;54.120;-4.710;2023-05-10T10:05:48;99365.22;;;22.60;30.04
80500;BME280;69823;54.120;-4.710;2023-05-10T10:08:15;99362.32;;;22.83;30.11
80500;BME280;69823;54.120;-4.710;2023-05-10T10:10:40;99365.58;;;22.72;30.31
80500;BME280;69823;54.120;-4.710;2023-05-10T10:13:06;99363.96;;;23.00;30.11
80500;BME280;69823;54.120;-4.710;2023-05-10T10:15:32;99364.87;;;22.55;30.08
80500;BME280;69823;54.120;-4.710;2023-05-10T10:17:57;99364.79;;;23.11;29.96
80500;BME280;69823;54.120;-4.710;2023-05-10T10:20:23;99366.54;;;23.16;29.87
80500;BME280;69823;54.120;-4.710;2023-05-10T10:22:49;99367.77;;;23.39;29.55
80500;BME280;69823;54.120;-4.710;2023-05-10T10:25:16;99367.33;;;22.94;29.77
80500;BME280;69823;54.120;-4.710;2023-05-10T10:27:46;99372.30;;;22.85;29.59
80500;BME280;69823;54.120;-4.710;2023-05-10T10:30:13;99371.35;;;22.82;29.57
80500;BME280;69823;54.120;-4.710;2023-05-10T10:32:42;99373.67;;;22.77;29.75
80500;BME280;69823;54.120;-4.710;2023-05-10T10:34:57;99378.68;;;22.35;30.08
80500;BME280;69823;54.120;-4.710;2023-05-10T10:37:24;99377.26;;;22.34;30.10
80500;BME280;69823;54.120;-4.710;2023-05-10T10:39:49;99373.59;;;22.37;30.04
80500;BME280;69823;54.120;-4.710;2023-05-10T10:42:14;99374.84;;;22.83;29.77
80500;BME280;69823;54.120;-4.710;2023-05-10T10:44:40;99376.57;;;22.71;29.90
80500;BME280;69823;54.120;-4.710;2023-05-10T10:47:09;99377.01;;;22.66;29.76
80500;BME280;69823;54.120;-4.710;2023-05-10T10:49:32;99375.75;;;22.89;29.80
80500;BME280;69823;54.120;-4.710;2023-05-10T10:52:13;99377.90;;;23.01;29.46
80500;BME280;69823;54.120;-4.710;2023-05-10T10:54:27;99379.28;;;22.72;29.28
80500;BME280;69823;54.120;-4.710;2023-05-10T11:01:41;99379.93;;;23.01;29.34
80500;BME280;69823;54.120;-4.710;2023-05-10T11:04:17;99385.24;;;23.07;29.34
80500;BME280;69823;54.120;-4.710;2023-05-10T11:06:33;99379.82;;;23.27;29.18
80500;BME280;69823;54.120;-4.710;2023-05-10T11:08:57;99381.45;;;22.90;29.59
80500;BME280;69823;54.120;-4.710;2023-05-10T11:11:23;99380.37;;;23.91;28.94
80500;BME280;69823;54.120;-4.710;2023-05-10T11:13:50;99377.63;;;23.79;28.67
80500;BME280;69823;54.120;-4.710;2023-05-10T11:16:17;99381.25;;;23.77;28.67
80500;BME280;69823;54.120;-4.710;2023-05-10T11:18:40;99376.15;;;23.86;28.58
80500;BME280;69823;54.120;-4.710;2023-05-10T11:21:09;99375.52;;;23.83;28.55
80500;BME280;69823;54.120;-4.710;2023-05-10T11:23:33;99375.34;;;23.82;28.45
80500;BME280;69823;54.120;-4.710;2023-05-10T11:25:58;99372.98;;;23.90;28.45
80500;BME280;69823;54.120;-4.710;2023-05-10T11:28:23;99371.00;;;23.60;28.46
80500;BME280;69823;54.120;-4.710;2023-05-10T11:30:49;99374.38;;;23.74;28.57
80500;BME280;69823;54.120;-4.710;2023-05-10T11:33:16;99368.60;;;23.85;28.50
80500;BME280;69823;54.120;-4.710;2023-05-10T11:35:41;99368.81;;;24.07;28.21
80500;BME280;69823;54.120;-4.710;2023-05-10T11:38:07;99371.54;;;23.98;28.03
80500;BME280;69823;54.120;-4.710;2023-05-10T11:40:32;99372.30;;;24.02;27.92
80500;BME280;69823;54.120;-4.710;2023-05-10T11:42:58;99371.18;;;24.17;27.99
80500;BME280;69823;54.120;-4.710;2023-05-10T11:45:24;99370.76;;;24.19;28.05
80500;BME280;69823;54.120;-4.710;2023-05-10T11:47:49;99367.71;;;24.25;27.99
80500;BME280;69823;54.120;-4.710;2023-05-10T11:50:17;99367.21;;;24.08;28.19
80500;BME280;69823;54.120;-4.710;2023-05-10T11:52:41;99368.48;;;24.18;28.09
80500;BME280;69823;54.120;-4.710;2023-05-10T11:55:07;99366.47;;;24.15;28.13
80500;BME280;69823;54.120;-4.710;2023-05-10T11:57:32;99366.65;;;24.18;28.06
80500;BME280;69823;54.120;-4.710;2023-05-10T11:59:58;99367.04;;;24.34;27.92
80500;BME280;69823;54.120;-4.710;2023-05-10T12:02:24;99365.26;;;23.78;28.49
80500;BME280;69823;54.120;-4.710;2023-05-10T12:04:50;99362.17;;;24.27;27.84
80500;BME280;69823;54.120;-4.710;2023-05-10T12:07:15;99366.10;;;24.27;27.49
80500;BME280;69823;54.120;-4.710;2023-05-10T12:09:42;99359.60;;;24.47;27.62
80500;BME280;69823;54.120;-4.710;2023-05-10T12:12:07;99358.22;;;23.98;27.59
80500;BME280;69823;54.120;-4.710;2023-05-10T12:14:35;99358.76;;;24.22;27.82
80500;BME280;69823;54.120;-4.710;2023-05-10T12:16:58;99358.69;;;24.35;27.67
80500;BME280;69823;54.120;-4.710;2023-05-10T12:19:24;99359.70;;;24.14;27.86
80500;BME280;69823;54.120;-4.710;2023-05-10T12:21:50;99361.96;;;24.16;27.70
80500;BME280;69823;54.120;-4.710;2023-05-10T12:24:15;99362.99;;;23.76;27.82
80500;BME280;69823;54.120;-4.710;2023-05-10T12:26:41;99362.70;;;23.67;27.88
80500;BME280;69823;54.120;-4.710;2023-05-10T12:29:12;99360.90;;;23.56;27.92
80500;BME280;69823;54.120;-4.710;2023-05-10T12:31:33;99360.42;;;23.45;28.30
80500;BME280;69823;54.120;-4.710;2023-05-10T12:33:58;99357.75;;;23.37;28.34
80500;BME280;69823;54.120;-4.710;2023-05-10T12:36:24;99359.71;;;23.59;28.29
80500;BME280;69823;54.120;-4.710;2023-05-10T12:38:50;99361.33;;;23.34;28.30
80500;BME280;69823;54.120;-4.710;2023-05-10T12:41:17;99363.63;;;23.06;28.32
80500;BME280;69823;54.120;-4.710;2023-05-10T12:43:41;99359.04;;;23.48;28.41
80500;BME280;69823;54.120;-4.710;2023-05-10T12:46:08;99361.67;;;23.35;28.71
80500;BME280;69823;54.120;-4.710;2023-05-10T12:48:33;99369.58;;;22.87;28.72
80500;BME280;69823;54.120;-4.710;2023-05-10T12:50:59;99368.11;;;22.82;28.81